Time;durP1;ratioP1;P1;durP2;ratioP2;P2;SDS_P1;SDS_P2;PMS_P1;PMS_P2;Temp;Humidity;BMP_temperature;BMP_pressure;BME280_temperature;BME280_humidity;BME280_pressure;Samples;Min_cycle;Max_cycle;Signal;HPM_P1;HPM_P2
2023/03/11 00:00:53;;;;;;;;;;;;;;;1.64;64.59;99494.47;5102058;28;19920;-87
2023/03/11 00:03:22;;;;;;;;;;;;;;;1.61;63.52;99502.53;5118160;28;20398;-86
2023/03/11 00:05:51;;;;;;;;;;;;;;;1.60;63.71;99514.72;5098588;28;19920;-86
2023/03/11 00:08:18;;;;;;;;;;;;;;;1.55;63.32;99516.03;5083836;28;19927;-86
2023/03/11 00:10:44;;;;;;;;;;;;;;;1.52;64.22;99519.69;5101180;28;19920;-86
2023/03/11 00:13:14;;;;;;;;;;;;;;;1.52;63.88;99514.47;5100352;28;19923;-86
2023/03/11 00:15:39;;;;;;;;;;;;;;;1.45;63.38;99513.28;5115876;28;19920;-86
2023/03/11 00:18:05;;;;;;;;;;;;;;;1.41;65.07;99512.72;5107425;28;19927;-87
2023/03/11 00:20:33;;;;;;;;;;;;;;;1.33;65.46;99512.47;5100009;28;19919;-86
2023/03/11 00:22:59;;;;;;;;;;;;;;;1.27;65.52;99515.56;5101869;28;19920;-87
2023/03/11 00:25:25;;;;;;;;;;;;;;;1.25;65.50;99530.47;5100929;28;19980;-86
2023/03/11 00:27:51;;;;;;;;;;;;;;;1.23;65.65;99525.38;5107478;28;20458;-87
2023/03/11 00:30:17;;;;;;;;;;;;;;;1.20;65.38;99535.19;5093459;28;19956;-88
2023/03/11 00:32:42;;;;;;;;;;;;;;;1.18;64.51;99521.47;5115176;28;19923;-87
2023/03/11 00:35:10;;;;;;;;;;;;;;;1.16;65.31;99524.16;5115925;28;19920;-86
2023/03/11 00:37:35;;;;;;;;;;;;;;;1.08;65.99;99552.56;5101497;28;19923;-87
2023/03/11 00:40:07;;;;;;;;;;;;;;;1.11;65.35;99551.50;5100967;28;19999;-87
2023/03/11 00:42:32;;;;;;;;;;;;;;;1.08;65.79;99563.00;5112903;28;19927;-87
2023/03/11 00:44:57;;;;;;;;;;;;;;;1.05;66.17;99547.59;5101229;28;20290;-86
2023/03/11 00:47:22;;;;;;;;;;;;;;;0.98;66.68;99560.25;5100192;28;19941;-86
2023/03/11 00:49:48;;;;;;;;;;;;;;;0.95;66.31;99544.84;5101161;28;19930;-86
2023/03/11 00:52:13;;;;;;;;;;;;;;;0.91;67.02;99543.44;5100452;28;20359;-87
2023/03/11 00:54:38;;;;;;;;;;;;;;;0.84;67.58;99540.44;5113551;28;19930;-87
2023/03/11 00:57:03;;;;;;;;;;;;;;;0.82;67.35;99538.91;5094803;28;20375;-87
2023/03/11 02:35:06;;;;;;;;;;;;;;;1.36;68.77;99590.38;5041223;28;19932;-90
2023/03/11 02:37:31;;;;;;;;;;;;;;;1.40;69.03;99589.19;5035430;28;19917;-90
2023/03/11 02:40:16;;;;;;;;;;;;;;;1.41;69.00;99577.03;5035171;28;20161;-90
2023/03/11 02:42:41;;;;;;;;;;;;;;;1.41;68.65;99577.84;5024769;28;19939;-90
2023/03/11 02:45:09;;;;;;;;;;;;;;;1.35;68.25;99575.69;5024979;28;19973;-89
2023/03/11 02:47:36;;;;;;;;;;;;;;;1.33;68.36;99585.38;5032410;28;19949;-89
2023/03/11 02:50:01;;;;;;;;;;;;;;;1.28;68.09;99580.53;5036490;28;19921;-90
2023/03/11 02:52:27;;;;;;;;;;;;;;;1.22;68.57;99582.78;5033694;28;19929;-89
2023/03/11 02:54:52;;;;;;;;;;;;;;;1.15;68.41;99581.59;5035196;28;19926;-90
2023/03/11 02:57:17;;;;;;;;;;;;;;;1.07;68.63;99592.56;5038287;28;19928;-89
2023/03/11 02:59:43;;;;;;;;;;;;;;;1.03;68.62;99594.56;5030487;28;19921;-89
2023/03/11 03:02:08;;;;;;;;;;;;;;;0.97;68.60;99591.59;5033682;28;19936;-88
2023/03/11 03:04:34;;;;;;;;;;;;;;;0.89;69.28;99599.97;5038189;28;19955;-89
2023/03/11 03:06:59;;;;;;;;;;;;;;;0.89;69.29;99609.56;5040032;28;20427;-90
2023/03/11 03:09:24;;;;;;;;;;;;;;;0.91;69.63;99605.06;5040283;28;19925;-91
2023/03/11 03:11:50;;;;;;;;;;;;;;;0.93;69.15;99601.41;5032347;28;19925;-90
2023/03/11 03:14:15;;;;;;;;;;;;;;;0.97;69.42;99605.41;5028638;28;19965;-89
2023/03/11 03:16:40;;;;;;;;;;;;;;;0.99;69.01;99611.34;5038261;28;19917;-89
2023/03/11 03:19:05;;;;;;;;;;;;;;;0.98;69.04;99616.69;5039826;28;20521;-90
2023/03/11 03:21:30;;;;;;;;;;;;;;;0.93;68.64;99610.97;5037301;28;19924;-89
2023/03/11 03:23:56;;;;;;;;;;;;;;;0.88;68.82;99611.28;5038967;28;19921;-90
2023/03/11 03:26:21;;;;;;;;;;;;;;;0.83;69.32;99611.66;5035391;28;19964;-90
2023/03/11 03:28:46;;;;;;;;;;;;;;;0.78;69.43;99620.72;5038692;28;19976;-89
2023/03/11 03:31:11;;;;;;;;;;;;;;;0.73;69.44;99621.06;5043072;28;19932;-90
2023/03/11 03:33:37;;;;;;;;;;;;;;;0.65;69.84;99628.59;5034339;28;19976;-89
2023/03/11 03:36:07;;;;;;;;;;;;;;;0.59;69.62;99640.25;5034205;23;20600;-89
2023/03/11 03:38:32;;;;;;;;;;;;;;;0.53;69.89;99639.91;4990921;28;19982;-90
2023/03/11 03:40:59;;;;;;;;;;;;;;;0.48;69.81;99636.75;4993701;28;19941;-90
2023/03/11 03:43:24;;;;;;;;;;;;;;;0.44;69.89;99646.56;4981444;28;19922;-91
2023/03/11 03:45:59;;;;;;;;;;;;;;;0.45;70.25;99647.41;4980008;28;19960;-89
2023/03/11 03:48:25;;;;;;;;;;;;;;;0.44;70.64;99646.56;4996009;28;19954;-89
2023/03/11 03:50:50;;;;;;;;;;;;;;;0.47;70.48;99643.75;4978103;28;19927;-90
2023/03/11 03:53:15;;;;;;;;;;;;;;;0.50;70.69;99640.94;4980067;28;19926;-90
2023/03/11 03:55:40;;;;;;;;;;;;;;;0.57;70.37;99646.50;4987315;28;19973;-90
2023/03/11 03:58:06;;;;;;;;;;;;;;;0.63;70.17;99641.72;4988834;28;19989;-89
2023/03/11 04:00:31;;;;;;;;;;;;;;;0.70;70.14;99644.72;4978775;28;19997;-90
2023/03/11 04:02:57;;;;;;;;;;;;;;;0.78;69.77;99644.16;4982494;28;19926;-89
2023/03/11 04:05:25;;;;;;;;;;;;;;;0.83;69.48;99652.44;4982347;28;19938;-90
2023/03/11 04:07:50;;;;;;;;;;;;;;;0.91;69.40;99660.53;4981744;28;19922;-89
2023/03/11 04:10:15;;;;;;;;;;;;;;;0.94;69.21;99655.13;4975742;28;19930;-90
2023/03/11 04:12:41;;;;;;;;;;;;;;;0.98;69.57;99655.72;4983120;28;19926;-90
2023/03/11 04:15:06;;;;;;;;;;;;;;;1.00;69.32;99657.28;4977658;28;19965;-90
2023/03/11 04:17:31;;;;;;;;;;;;;;;1.02;68.93;99655.38;4978947;28;20370;-90
2023/03/11 04:19:56;;;;;;;;;;;;;;;1.02;68.58;99657.97;4977582;28;20008;-90
2023/03/11 04:22:22;;;;;;;;;;;;;;;1.01;68.92;99658.94;4981205;28;19922;-91
2023/03/11 04:24:47;;;;;;;;;;;;;;;0.99;69.29;99673.81;4984557;28;19918;-90
2023/03/11 04:27:12;;;;;;;;;;;;;;;0.98;68.74;99666.97;4966704;28;19918;-91
2023/03/11 04:29:37;;;;;;;;;;;;;;;1.01;69.02;99674.53;4985110;28;19926;-91
2023/03/11 04:32:03;;;;;;;;;;;;;;;1.01;69.21;99681.53;4974980;28;19946;-89
2023/03/11 04:34:28;;;;;;;;;;;;;;;1.02;69.21;99672.75;4985447;28;19918;-89
2023/03/11 04:36:53;;;;;;;;;;;;;;;0.99;69.17;99679.03;4986115;28;19922;-90
2023/03/11 04:39:19;;;;;;;;;;;;;;;0.92;69.41;99677.81;4985957;28;20000;-91
2023/03/11 04:41:44;;;;;;;;;;;;;;;0.84;69.25;99680.16;4986474;28;19918;-90
2023/03/11 04:44:09;;;;;;;;;;;;;;;0.76;69.45;99685.06;4984385;28;20306;-90
2023/03/11 04:46:34;;;;;;;;;;;;;;;0.70;69.54;99680.31;4973308;28;20375;-90
2023/03/11 04:48:59;;;;;;;;;;;;;;;0.64;70.12;99671.16;4980706;28;19980;-90
2023/03/11 04:51:25;;;;;;;;;;;;;;;0.57;69.78;99668.19;4977797;28;19926;-89
2023/03/11 04:53:50;;;;;;;;;;;;;;;0.51;70.34;99668.59;4985407;28;19918;-90
2023/03/11 04:56:15;;;;;;;;;;;;;;;0.46;70.27;99677.69;4982319;28;19926;-90
2023/03/11 04:58:40;;;;;;;;;;;;;;;0.37;71.23;99679.16;4982365;28;19952;-90
2023/03/11 05:01:05;;;;;;;;;;;;;;;0.34;71.53;99687.19;4985309;28;19918;-90
2023/03/11 05:03:31;;;;;;;;;;;;;;;0.29;72.00;99684.91;4985149;28;19929;-90
2023/03/11 05:05:56;;;;;;;;;;;;;;;0.27;72.17;99683.34;4978330;28;19946;-89
2023/03/11 05:08:22;;;;;;;;;;;;;;;0.29;71.86;99692.69;4986118;28;19930;-90
2023/03/11 05:10:47;;;;;;;;;;;;;;;0.34;72.23;99692.38;4990390;28;19936;-90
2023/03/11 05:13:12;;;;;;;;;;;;;;;0.38;72.39;99694.66;4976796;28;20564;-90
2023/03/11 05:15:37;;;;;;;;;;;;;;;0.40;72.25;99687.56;4985974;28;19922;-90
2023/03/11 05:18:04;;;;;;;;;;;;;;;0.41;72.24;99686.63;4985969;28;20025;-89
2023/03/11 05:20:31;;;;;;;;;;;;;;;0.38;72.45;99691.19;4984417;28;19918;-90
2023/03/11 05:22:57;;;;;;;;;;;;;;;0.33;72.42;99691.53;4980569;28;20051;-90
2023/03/11 05:25:26;;;;;;;;;;;;;;;0.30;72.49;99699.53;4987431;28;19930;-91
2023/03/11 05:27:51;;;;;;;;;;;;;;;0.22;73.09;99698.44;4977418;28;19922;-90
2023/03/11 05:30:18;;;;;;;;;;;;;;;0.17;73.24;99712.56;4982609;28;20698;-90
2023/03/11 05:32:43;;;;;;;;;;;;;;;0.12;73.05;99709.47;4974310;28;20017;-89
2023/03/11 05:35:09;;;;;;;;;;;;;;;0.10;72.73;99710.50;4979873;28;19953;-89
2023/03/11 05:37:34;;;;;;;;;;;;;;;0.05;73.66;99720.34;4970409;28;19942;-89
2023/03/11 05:40:00;;;;;;;;;;;;;;;0.02;73.62;99713.59;4984853;28;19964;-90
2023/03/11 05:42:25;;;;;;;;;;;;;;;0.02;72.96;99721.41;4985118;28;19984;-90
2023/03/11 05:44:50;;;;;;;;;;;;;;;-0.01;72.98;99724.22;4985738;28;19906;-90
2023/03/11 05:47:18;;;;;;;;;;;;;;;-0.08;73.05;99728.16;4982963;28;19981;-90
2023/03/11 05:49:45;;;;;;;;;;;;;;;-0.13;73.42;99730.25;4982418;28;19944;-89
2023/03/11 05:52:10;;;;;;;;;;;;;;;-0.18;73.18;99733.16;4982098;28;19922;-90
2023/03/11 05:54:35;;;;;;;;;;;;;;;-0.23;73.16;99733.47;4985875;28;19934;-91
2023/03/11 05:57:03;;;;;;;;;;;;;;;-0.27;73.17;99734.59;4981258;28;19930;-89
2023/03/11 05:59:28;;;;;;;;;;;;;;;-0.29;73.57;99733.03;4982101;28;19949;-89
2023/03/11 06:01:54;;;;;;;;;;;;;;;-0.32;73.46;99726.28;4979306;28;19926;-90
2023/03/11 06:04:19;;;;;;;;;;;;;;;-0.35;73.52;99725.66;4979471;28;19933;-90
2023/03/11 06:06:44;;;;;;;;;;;;;;;-0.39;73.44;99725.00;4984673;28;19922;-89
2023/03/11 06:12:20;;;;;;;;;;;;;;;-0.34;73.97;99728.13;4986501;28;19933;-90
2023/03/11 06:14:45;;;;;;;;;;;;;;;-0.32;74.34;99736.66;4985814;28;19926;-90
2023/03/11 06:17:10;;;;;;;;;;;;;;;-0.26;74.43;99744.06;4982972;28;19941;-89
2023/03/11 06:19:35;;;;;;;;;;;;;;;-0.24;74.63;99743.94;4985162;28;19976;-89
2023/03/11 06:22:01;;;;;;;;;;;;;;;-0.23;74.26;99745.63;4984484;28;19929;-90
2023/03/11 06:24:33;;;;;;;;;;;;;;;-0.26;75.19;99743.25;4978200;28;19925;-89
2023/03/11 06:26:59;;;;;;;;;;;;;;;-0.28;74.81;99753.72;4983940;28;19925;-90
2023/03/11 06:29:25;;;;;;;;;;;;;;;-0.30;76.48;99752.16;4976247;28;19933;-89
2023/03/11 06:31:51;;;;;;;;;;;;;;;-0.33;75.51;99754.97;4976700;28;20431;-89
2023/03/11 06:34:16;;;;;;;;;;;;;;;-0.32;75.06;99761.81;4983380;28;20016;-89
2023/03/11 06:36:41;;;;;;;;;;;;;;;-0.31;75.21;99769.50;4985809;28;20004;-90
2023/03/11 06:39:06;;;;;;;;;;;;;;;-0.27;75.01;99773.56;4979318;28;20347;-90
2023/03/11 06:41:33;;;;;;;;;;;;;;;-0.16;74.84;99779.81;4980350;28;19929;-90
2023/03/11 06:43:58;;;;;;;;;;;;;;;-0.07;75.03;99781.78;5000559;28;20289;-90
2023/03/11 06:46:23;;;;;;;;;;;;;;;0.04;75.52;99783.69;4983629;28;19986;-90
2023/03/11 06:48:52;;;;;;;;;;;;;;;0.13;75.27;99786.50;4978880;28;19953;-90
2023/03/11 06:51:18;;;;;;;;;;;;;;;0.25;74.74;99797.84;4984900;28;19928;-90
2023/03/11 06:53:43;;;;;;;;;;;;;;;0.36;74.69;99795.34;4976411;28;19922;-90
2023/03/11 06:56:10;;;;;;;;;;;;;;;0.46;74.63;99799.94;4982461;28;20369;-91
2023/03/11 06:58:36;;;;;;;;;;;;;;;0.58;74.17;99807.72;4980132;28;19928;-89
2023/03/11 07:01:03;;;;;;;;;;;;;;;0.68;73.93;99810.50;4964080;28;19949;-90
2023/03/11 07:03:28;;;;;;;;;;;;;;;0.75;73.74;99818.72;4982881;28;19918;-90
2023/03/11 07:05:54;;;;;;;;;;;;;;;0.85;73.55;99814.53;4983816;28;20260;-89
2023/03/11 07:08:19;;;;;;;;;;;;;;;0.93;73.61;99824.41;4984802;28;19918;-89
2023/03/11 07:10:45;;;;;;;;;;;;;;;1.04;73.79;99834.91;4989971;28;20361;-90
2023/03/11 07:13:10;;;;;;;;;;;;;;;1.13;73.26;99836.03;4972912;28;20076;-90
2023/03/11 07:15:35;;;;;;;;;;;;;;;1.15;73.14;99832.38;4974374;28;19947;-89
2023/03/11 07:18:01;;;;;;;;;;;;;;;1.12;72.64;99834.34;4969429;28;20373;-89
2023/03/11 07:20:26;;;;;;;;;;;;;;;1.14;72.97;99838.50;4979648;28;19926;-89
2023/03/11 07:22:51;;;;;;;;;;;;;;;1.23;72.79;99843.06;4983776;28;19918;-90
2023/03/11 07:25:17;;;;;;;;;;;;;;;1.30;72.36;99842.66;4980318;28;19929;-90
2023/03/11 07:27:42;;;;;;;;;;;;;;;1.41;71.99;99853.97;4982630;28;20105;-91
2023/03/11 07:30:07;;;;;;;;;;;;;;;1.53;71.34;99854.84;4968329;28;19918;-88
2023/03/11 07:32:33;;;;;;;;;;;;;;;1.67;71.16;99859.09;4983080;28;20299;-89
2023/03/11 07:34:58;;;;;;;;;;;;;;;1.69;70.44;99858.03;4984807;28;19961;-90
2023/03/11 07:37:23;;;;;;;;;;;;;;;1.78;70.40;99856.50;4985608;28;20367;-90
2023/03/11 07:39:48;;;;;;;;;;;;;;;1.78;69.80;99871.31;4982435;28;20514;-91
2023/03/11 07:42:14;;;;;;;;;;;;;;;1.76;70.09;99873.19;4981727;28;19922;-90
2023/03/11 07:44:45;;;;;;;;;;;;;;;1.82;71.05;99876.19;4986612;28;19976;-90
2023/03/11 07:47:10;;;;;;;;;;;;;;;1.90;70.68;99878.25;4979409;28;19941;-90
2023/03/11 07:49:36;;;;;;;;;;;;;;;2.01;70.03;99885.28;4987792;28;19951;-89
2023/03/11 07:52:02;;;;;;;;;;;;;;;2.13;70.57;99887.00;4982729;28;19926;-89
2023/03/11 07:54:27;;;;;;;;;;;;;;;2.29;70.13;99894.50;4986421;28;19922;-90
2023/03/11 07:56:52;;;;;;;;;;;;;;;2.35;69.67;99894.03;4986539;28;20618;-90
2023/03/11 07:59:17;;;;;;;;;;;;;;;2.39;69.90;99894.66;4980478;28;19929;-89
2023/03/11 08:01:46;;;;;;;;;;;;;;;2.32;67.89;99902.94;4975681;28;19961;-90
2023/03/11 08:04:11;;;;;;;;;;;;;;;2.21;68.78;99905.50;4964759;28;19974;-90
2023/03/11 08:06:37;;;;;;;;;;;;;;;2.19;69.37;99903.94;4977129;28;19923;-89
2023/03/11 08:09:06;;;;;;;;;;;;;;;2.21;68.76;99915.94;4986546;28;19930;-90
2023/03/11 08:11:32;;;;;;;;;;;;;;;2.24;69.56;99922.69;4979443;28;19926;-89
2023/03/11 08:13:57;;;;;;;;;;;;;;;2.23;69.60;99924.47;4982161;28;19922;-89
2023/03/11 08:16:22;;;;;;;;;;;;;;;2.20;68.28;99924.72;4985624;28;20003;-90
2023/03/11 08:18:48;;;;;;;;;;;;;;;2.23;68.84;99927.09;4984853;28;19925;-90
2023/03/11 08:21:15;;;;;;;;;;;;;;;2.29;69.58;99931.03;4977708;28;19965;-90
2023/03/11 08:23:42;;;;;;;;;;;;;;;2.36;70.11;99934.84;4982044;28;20362;-91
2023/03/11 08:26:09;;;;;;;;;;;;;;;2.72;68.58;99944.31;4970540;28;19919;-89
2023/03/11 08:28:34;;;;;;;;;;;;;;;3.66;72.78;99934.44;4976884;28;19918;-89
2023/03/11 08:30:59;;;;;;;;;;;;;;;4.73;69.08;99947.59;4967683;28;20287;-90
2023/03/11 08:33:25;;;;;;;;;;;;;;;5.68;70.58;99945.50;4969354;28;20008;-90
2023/03/11 08:35:50;;;;;;;;;;;;;;;6.35;66.01;99941.31;4995798;28;19938;-90
2023/03/11 08:38:18;;;;;;;;;;;;;;;7.14;66.44;99936.72;4995378;28;19929;-89
2023/03/11 08:40:44;;;;;;;;;;;;;;;7.91;58.93;99939.94;4980839;28;19921;-89
2023/03/11 08:43:13;;;;;;;;;;;;;;;8.90;65.78;99943.25;4974616;28;19918;-89
2023/03/11 08:45:39;;;;;;;;;;;;;;;9.65;63.97;99937.34;4986291;28;19947;-89
2023/03/11 08:48:04;;;;;;;;;;;;;;;9.82;60.67;99940.03;4977950;28;19960;-89
2023/03/11 08:50:29;;;;;;;;;;;;;;;10.16;54.98;99946.03;4974319;28;20503;-90
2023/03/11 08:52:55;;;;;;;;;;;;;;;9.78;54.79;99945.63;4959551;28;19922;-89
2023/03/11 08:55:26;;;;;;;;;;;;;;;10.21;56.99;99940.28;4980676;28;19922;-90
2023/03/11 08:57:51;;;;;;;;;;;;;;;11.24;53.28;99934.41;4980018;28;19914;-90
2023/03/11 09:00:17;;;;;;;;;;;;;;;11.45;52.76;99933.81;4980305;28;19941;-90
2023/03/11 09:02:42;;;;;;;;;;;;;;;12.07;47.31;99936.50;4982556;28;19929;-90
2023/03/11 09:05:08;;;;;;;;;;;;;;;12.44;44.43;99939.34;4983906;28;19922;-91
2023/03/11 09:07:33;;;;;;;;;;;;;;;12.83;39.99;99947.16;4985143;28;20033;-90
2023/03/11 09:09:58;;;;;;;;;;;;;;;11.72;38.99;99942.31;4985984;28;19977;-90
2023/03/11 09:12:23;;;;;;;;;;;;;;;10.53;40.99;99947.41;4979786;28;19954;-90
2023/03/11 09:14:50;;;;;;;;;;;;;;;9.71;48.28;99949.09;4984416;28;19946;-90
2023/03/11 09:17:16;;;;;;;;;;;;;;;9.09;46.66;99952.78;4972412;28;19985;-89
2023/03/11 09:19:41;;;;;;;;;;;;;;;8.33;45.73;99950.72;4985003;28;19918;-89
2023/03/11 09:22:06;;;;;;;;;;;;;;;7.68;47.09;99945.63;4980534;28;19925;-89
2023/03/11 09:24:33;;;;;;;;;;;;;;;7.38;49.26;99950.19;4976372;28;19990;-90
2023/03/11 09:26:59;;;;;;;;;;;;;;;7.06;48.03;99947.16;4973407;28;19922;-90
2023/03/11 09:29:24;;;;;;;;;;;;;;;6.73;47.50;99950.13;4977380;28;19930;-90
2023/03/11 09:31:49;;;;;;;;;;;;;;;7.05;47.77;99943.66;4981229;28;19998;-90
2023/03/11 09:34:14;;;;;;;;;;;;;;;7.91;48.42;99939.94;4983914;28;19985;-90
2023/03/11 09:36:40;;;;;;;;;;;;;;;8.98;45.93;99954.84;4983505;28;19928;-90
2023/03/11 09:39:05;;;;;;;;;;;;;;;9.30;43.69;99939.19;4986913;28;19933;-90
2023/03/11 09:41:37;;;;;;;;;;;;;;;8.69;44.57;99943.59;4977200;28;19922;-90
2023/03/11 09:44:03;;;;;;;;;;;;;;;7.91;44.50;99940.75;4977846;28;20001;-88
2023/03/11 09:46:49;;;;;;;;;;;;;;;7.43;45.32;99947.94;4978879;28;20005;-90
2023/03/11 09:49:29;;;;;;;;;;;;;;;6.85;44.18;99949.97;4978485;28;19919;-90
2023/03/11 09:52:04;;;;;;;;;;;;;;;7.85;46.50;99944.81;4977295;28;19927;-90
2023/03/11 09:54:33;;;;;;;;;;;;;;;7.97;42.88;99949.88;4981306;28;19922;-89
2023/03/11 09:57:00;;;;;;;;;;;;;;;7.77;44.29;99946.53;4982395;28;19926;-90
2023/03/11 09:59:36;;;;;;;;;;;;;;;7.71;45.43;99950.59;4980051;28;19926;-91
2023/03/11 10:02:02;;;;;;;;;;;;;;;7.85;43.18;99944.00;4993190;28;19918;-90
2023/03/11 10:04:35;;;;;;;;;;;;;;;7.78;44.29;99943.75;4983666;28;19925;-90
2023/03/11 10:07:08;;;;;;;;;;;;;;;7.39;43.68;99941.34;4983989;28;19922;-89
2023/03/11 10:09:49;;;;;;;;;;;;;;;6.97;43.82;99948.84;4987683;28;19966;-90
2023/03/11 10:12:18;;;;;;;;;;;;;;;6.54;44.72;99950.16;4983152;28;19922;-89
2023/03/11 10:14:46;;;;;;;;;;;;;;;6.30;44.26;99955.84;4983055;28;19922;-90
2023/03/11 10:17:20;;;;;;;;;;;;;;;6.36;44.50;99952.63;4975658;28;20278;-91
2023/03/11 10:19:52;;;;;;;;;;;;;;;7.11;43.30;99945.75;4981572;28;19922;-90
2023/03/11 10:22:26;;;;;;;;;;;;;;;6.97;43.00;99949.66;4981282;28;20533;-89
2023/03/11 10:25:16;;;;;;;;;;;;;;;6.49;44.19;99957.63;4992744;28;19922;-91
2023/03/11 10:28:00;;;;;;;;;;;;;;;6.17;44.61;99958.72;4986651;28;19923;-91
2023/03/11 10:30:43;;;;;;;;;;;;;;;6.41;44.75;99960.94;5048408;23;20521;-87
2023/03/11 10:33:28;;;;;;;;;;;;;;;6.42;43.33;99965.22;5006802;28;20337;-86
2023/03/11 10:36:00;;;;;;;;;;;;;;;7.48;43.50;99962.47;4988430;28;20017;-86
2023/03/11 10:38:26;;;;;;;;;;;;;;;;;;5008417;28;20028;-87
2023/03/11 10:40:53;;;;;;;;;;;;;;;11.32;nan;99976.72;5016582;28;19984;-86
2023/03/11 10:43:25;;;;;;;;;;;;;;;13.67;nan;99962.00;5011510;28;19921;-86
2023/03/11 10:45:51;;;;;;;;;;;;;;;15.74;nan;99961.91;5010064;28;19921;-86
2023/03/11 10:48:17;;;;;;;;;;;;;;;17.21;nan;99969.03;5013235;28;19921;-84
2023/03/11 10:51:02;;;;;;;;;;;;;;;17.88;nan;99960.81;5013714;28;19999;-87
2023/03/11 10:53:28;;;;;;;;;;;;;;;17.91;nan;99958.53;4999496;28;19929;-86
2023/03/11 10:55:55;;;;;;;;;;;;;;;17.33;nan;99961.19;5020944;28;20059;-84
2023/03/11 10:58:24;;;;;;;;;;;;;;;16.69;nan;99968.84;5013130;28;20411;-84
2023/03/11 11:01:06;;;;;;;;;;;;;;;14.71;nan;99962.50;5005512;28;19937;-86
2023/03/11 11:03:32;;;;;;;;;;;;;;;12.98;nan;99970.22;5024222;28;19970;-86
2023/03/11 11:05:59;;;;;;;;;;;;;;;12.39;nan;99969.06;5010182;28;20454;-85
2023/03/11 11:08:24;;;;;;;;;;;;;;;12.62;nan;99971.72;5012335;28;20375;-86
2023/03/11 11:10:51;;;;;;;;;;;;;;;10.82;nan;99977.78;5021981;28;19924;-86
2023/03/11 11:13:17;;;;;;;;;;;;;;;9.60;nan;99975.75;5015127;28;19929;-86
2023/03/11 11:15:58;;;;;;;;;;;;;;;8.68;nan;99981.50;5024750;28;19929;-86
2023/03/11 11:18:26;;;;;;;;;;;;;;;8.30;nan;99975.53;5022659;28;19928;-86
2023/03/11 11:20:57;;;;;;;;;;;;;;;7.79;nan;99968.25;5021255;28;20024;-86
2023/03/11 11:23:26;;;;;;;;;;;;;;;7.37;nan;99964.31;5024274;28;20024;-86
2023/03/11 11:25:57;;;;;;;;;;;;;;;7.19;nan;99968.69;5017033;28;19941;-86
2023/03/11 11:28:22;;;;;;;;;;;;;;;6.91;nan;99965.16;5012777;28;19930;-85
2023/03/11 11:31:10;;;;;;;;;;;;;;;6.93;nan;99965.84;5020138;28;19928;-86
2023/03/11 11:33:47;;;;;;;;;;;;;;;8.09;nan;99960.03;5021723;28;19926;-86
2023/03/11 11:36:14;;;;;;;;;;;;;;;9.94;nan;99967.81;5025480;28;19953;-86
2023/03/11 11:38:39;;;;;;;;;;;;;;;12.21;nan;99963.25;5014370;28;20063;-86
2023/03/11 11:41:05;;;;;;;;;;;;;;;14.02;nan;99963.84;5028574;28;20128;-87
2023/03/11 11:43:42;;;;;;;;;;;;;;;14.06;nan;99958.97;5015780;28;20020;-86
2023/03/11 11:46:23;;;;;;;;;;;;;;;13.69;nan;99963.47;5018342;28;19922;-86
2023/03/11 11:48:51;;;;;;;;;;;;;;;12.07;nan;99952.38;5012490;28;20005;-86
2023/03/11 11:51:21;;;;;;;;;;;;;;;11.05;nan;99959.41;5015258;28;19940;-86
2023/03/11 11:53:46;;;;;;;;;;;;;;;9.95;nan;99959.69;5022268;28;19921;-87
2023/03/11 11:56:11;;;;;;;;;;;;;;;9.22;nan;99951.50;5014710;28;19940;-86
2023/03/11 11:58:38;;;;;;;;;;;;;;;8.51;nan;99950.75;5026605;28;19929;-85
2023/03/11 12:01:13;;;;;;;;;;;;;;;8.04;nan;99957.03;5014621;28;19925;-86
2023/03/11 12:03:46;;;;;;;;;;;;;;;7.71;nan;99955.84;5021224;28;19925;-86
2023/03/11 12:06:15;;;;;;;;;;;;;;;7.78;nan;99948.19;5014151;28;19921;-85
2023/03/11 12:08:59;;;;;;;;;;;;;;;8.04;nan;99948.31;5013427;28;20703;-86
2023/03/11 12:11:51;;;;;;;;;;;;;;;8.33;nan;99945.44;5031494;28;19993;-87
2023/03/11 12:14:24;;;;;;;;;;;;;;;8.11;nan;99940.63;5013243;28;19928;-86
2023/03/11 12:16:49;;;;;;;;;;;;;;;8.61;nan;99943.56;5026224;28;19972;-86
2023/03/11 12:19:18;;;;;;;;;;;;;;;8.76;nan;99949.09;5021248;28;19929;-86
2023/03/11 12:21:52;;;;;;;;;;;;;;;9.50;nan;99942.41;5017454;28;19922;-88
2023/03/11 12:24:29;;;;;;;;;;;;;;;9.36;nan;99945.63;5015328;28;19977;-87
2023/03/11 12:26:59;;;;;;;;;;;;;;;9.38;nan;99946.31;5017240;28;19922;-87
2023/03/11 12:29:30;;;;;;;;;;;;;;;9.10;nan;99943.84;5030207;28;19977;-86
2023/03/11 12:31:56;;;;;;;;;;;;;;;8.66;nan;99938.66;5022213;28;20395;-86
2023/03/11 12:34:23;;;;;;;;;;;;;;;8.28;nan;99934.53;5027292;28;20006;-86
2023/03/11 12:36:50;;;;;;;;;;;;;;;7.80;nan;99933.91;5015964;28;19922;-87
2023/03/11 12:39:32;;;;;;;;;;;;;;;7.72;nan;99946.97;5021080;28;19947;-86
2023/03/11 12:42:10;;;;;;;;;;;;;;;7.59;nan;99939.44;5012802;28;20343;-86
2023/03/11 12:44:35;;;;;;;;;;;;;;;7.61;nan;99945.38;5026482;28;19929;-86
2023/03/11 12:47:02;;;;;;;;;;;;;;;7.69;nan;99935.91;5022503;28;19921;-86
2023/03/11 12:49:32;;;;;;;;;;;;;;;8.23;nan;99940.25;5016475;28;20939;-86
2023/03/11 12:52:03;;;;;;;;;;;;;;;8.59;nan;99934.97;5012390;28;20004;-86
2023/03/11 12:54:30;;;;;;;;;;;;;;;8.50;nan;99941.16;5017141;28;19929;-85
2023/03/11 12:57:14;;;;;;;;;;;;;;;8.23;nan;99934.16;5024185;28;20382;-85
2023/03/11 12:59:39;;;;;;;;;;;;;;;8.07;nan;99934.84;5017327;28;19928;-85
2023/03/11 13:02:23;;;;;;;;;;;;;;;7.80;nan;99923.38;5028760;28;19918;-85
2023/03/11 13:04:58;;;;;;;;;;;;;;;7.59;nan;99925.47;5025417;28;20005;-85
2023/03/11 13:07:39;;;;;;;;;;;;;;;7.47;nan;99934.53;5016297;28;19929;-85
2023/03/11 13:10:10;;;;;;;;;;;;;;;7.58;nan;99929.03;5037058;28;20180;-85
2023/03/11 13:12:42;;;;;;;;;;;;;;;7.55;nan;99932.78;5041825;28;19921;-85
2023/03/11 13:15:34;;;;;;;;;;;;;;;7.33;nan;99928.75;5022324;28;19926;-85
2023/03/11 13:18:04;;;;;;;;;;;;;;;7.04;nan;99941.22;5009632;28;19939;-85
2023/03/11 13:20:54;;;;;;;;;;;;;;;7.10;nan;99938.81;5013432;28;20008;-84
2023/03/11 13:23:20;;;;;;;;;;;;;;;6.94;nan;99946.50;5023717;28;19918;-85
2023/03/11 13:25:48;;;;;;;;;;;;;;;6.77;nan;99961.19;5001743;28;19932;-86
2023/03/11 13:28:26;;;;;;;;;;;;;;;6.54;nan;99952.78;4993892;28;19932;-86
2023/03/11 13:31:12;;;;;;;;;;;;;;;6.44;nan;99963.31;5015523;28;19921;-84
2023/03/11 13:33:48;;;;;;;;;;;;;;;6.24;nan;99975.59;5026787;28;19925;-85
2023/03/11 13:36:35;;;;;;;;;;;;;;;6.01;nan;99974.19;5023076;28;19917;-85
2023/03/11 13:39:05;;;;;;;;;;;;;;;5.80;nan;99976.88;5012400;28;19921;-87
2023/03/11 13:41:35;;;;;;;;;;;;;;;5.69;nan;99975.19;5002902;28;19921;-87
2023/03/11 13:44:12;;;;;;;;;;;;;;;5.64;nan;99974.75;5019539;28;19945;-85
2023/03/11 13:46:41;;;;;;;;;;;;;;;5.55;nan;99979.00;5024024;28;19925;-86
2023/03/11 13:49:29;;;;;;;;;;;;;;;5.67;nan;99980.59;5008578;28;19956;-85
2023/03/11 13:52:03;;;;;;;;;;;;;;;5.77;nan;99977.13;5010299;28;19929;-85
2023/03/11 13:54:38;;;;;;;;;;;;;;;5.83;nan;99976.59;5026153;28;19933;-85
2023/03/11 13:57:14;;;;;;;;;;;;;;;5.83;nan;99971.34;5002768;28;19976;-85
2023/03/11 13:59:40;;;;;;;;;;;;;;;5.84;nan;99970.38;5018374;28;19936;-85
2023/03/11 14:02:05;;;;;;;;;;;;;;;5.90;nan;99967.22;5018354;28;19917;-85
2023/03/11 14:04:34;;;;;;;;;;;;;;;6.00;nan;99962.03;5006384;28;19931;-85
2023/03/11 14:07:16;;;;;;;;;;;;;;;6.16;nan;99968.41;5016753;28;19926;-87
2023/03/11 14:09:44;;;;;;;;;;;;;;;6.38;nan;99966.47;5014176;28;20458;-86
2023/03/11 14:12:17;;;;;;;;;;;;;;;6.44;nan;99978.22;5012587;28;19936;-86
2023/03/11 14:14:46;;;;;;;;;;;;;;;6.62;nan;99966.03;5025635;28;19921;-87
2023/03/11 14:17:18;;;;;;;;;;;;;;;6.47;nan;99970.88;5019238;28;19985;-86
2023/03/11 14:20:09;;;;;;;;;;;;;;;6.28;nan;99994.53;4999145;28;19922;-86
2023/03/11 14:22:35;;;;;;;;;;;;;;;6.32;nan;99985.41;5005392;28;19930;-86
2023/03/11 14:25:08;;;;;;;;;;;;;;;6.36;nan;99984.16;5028229;28;19976;-86
2023/03/11 14:27:40;;;;;;;;;;;;;;;6.21;nan;99985.53;5003687;28;20136;-86
2023/03/11 14:30:15;;;;;;;;;;;;;;;6.21;nan;99988.16;5012374;28;19940;-86
2023/03/11 14:32:40;;;;;;;;;;;;;;;6.29;nan;99993.56;5020330;28;19944;-85
2023/03/11 14:35:19;;;;;;;;;;;;;;;6.30;nan;100005.72;5009176;28;19921;-85
2023/03/11 14:37:44;;;;;;;;;;;;;;;6.27;nan;100003.34;5031045;28;19920;-86
2023/03/11 14:40:27;;;;;;;;;;;;;;;6.30;nan;100009.19;5022059;28;19939;-86
2023/03/11 14:42:54;;;;;;;;;;;;;;;6.30;nan;100010.97;5017748;28;19921;-86
2023/03/11 14:45:41;;;;;;;;;;;;;;;6.15;nan;100008.75;5016320;28;19948;-86
2023/03/11 14:48:16;;;;;;;;;;;;;;;6.10;nan;100002.22;5003416;28;19921;-86